sensor_id;sensor_type;location;lat;lon;timestamp;temperature;humidity
17333;DHT22;8784;50.94667800;7.08448400;2023-05-07T00:02:04;15.70;99.90
17333;DHT22;8784;50.94667800;7.08448400;2023-05-07T00:04:31;15.60;99.90
17333;DHT22;8784;50.94667800;7.08448400;2023-05-07T00:07:02;15.60;99.90
17333;DHT22;8784;50.94667800;7.08448400;2023-05-07T00:09:29;15.60;99.90
17333;DHT22;8784;50.94667800;7.08448400;2023-05-07T00:11:57;15.60;99.90
17333;DHT22;8784;50.94667800;7.08448400;2023-05-07T00:14:24;15.70;99.90
17333;DHT22;8784;50.94667800;7.08448400;2023-05-07T00:16:51;15.70;99.90
17333;DHT22;8784;50.94667800;7.08448400;2023-05-07T00:19:18;15.60;99.90
17333;DHT22;8784;50.94667800;7.08448400;2023-05-07T00:21:44;15.60;99.90
17333;DHT22;8784;50.94667800;7.08448400;2023-05-07T00:24:11;15.60;99.90
17333;DHT22;8784;50.94667800;7.08448400;2023-05-07T00:26:38;15.50;99.90
17333;DHT22;8784;50.94667800;7.08448400;2023-05-07T00:29:06;15.50;99.90
17333;DHT22;8784;50.94667800;7.08448400;2023-05-07T00:31:33;15.50;99.90
17333;DHT22;8784;50.94667800;7.08448400;2023-05-07T00:34:00;15.50;99.90
17333;DHT22;8784;50.94667800;7.08448400;2023-05-07T00:36:27;15.40;99.90
17333;DHT22;8784;50.94667800;7.08448400;2023-05-07T00:38:54;15.40;99.90
17333;DHT22;8784;50.94667800;7.08448400;2023-05-07T00:41:21;15.30;99.90
17333;DHT22;8784;50.94667800;7.08448400;2023-05-07T00:43:49;15.30;99.90
17333;DHT22;8784;50.94667800;7.08448400;2023-05-07T00:46:20;15.40;99.90
17333;DHT22;8784;50.94667800;7.08448400;2023-05-07T00:48:48;15.20;99.90
17333;DHT22;8784;50.94667800;7.08448400;2023-05-07T00:51:16;15.30;99.90
17333;DHT22;8784;50.94667800;7.08448400;2023-05-07T00:53:43;15.30;99.90
17333;DHT22;8784;50.94667800;7.08448400;2023-05-07T00:56:10;15.30;99.90
17333;DHT22;8784;50.94667800;7.08448400;2023-05-07T00:58:38;15.40;99.90
17333;DHT22;8784;50.94667800;7.08448400;2023-05-07T01:01:05;15.00;99.90
17333;DHT22;8784;50.94667800;7.08448400;2023-05-07T01:03:33;15.30;99.90
17333;DHT22;8784;50.94667800;7.08448400;2023-05-07T01:06:01;15.30;99.90
17333;DHT22;8784;50.94667800;7.08448400;2023-05-07T01:08:28;15.30;99.90
17333;DHT22;8784;50.94667800;7.08448400;2023-05-07T01:10:56;15.40;99.90
17333;DHT22;8784;50.94667800;7.08448400;2023-05-07T01:13:24;15.30;99.90
17333;DHT22;8784;50.94667800;7.08448400;2023-05-07T01:15:51;15.30;99.90
17333;DHT22;8784;50.94667800;7.08448400;2023-05-07T01:18:18;15.20;99.90
17333;DHT22;8784;50.94667800;7.08448400;2023-05-07T01:20:47;15.20;99.90
17333;DHT22;8784;50.94667800;7.08448400;2023-05-07T01:23:15;15.20;99.90
17333;DHT22;8784;50.94667800;7.08448400;2023-05-07T01:25:43;15.20;99.90
17333;DHT22;8784;50.94667800;7.08448400;2023-05-07T01:28:10;15.10;99.90
17333;DHT22;8784;50.94667800;7.08448400;2023-05-07T01:30:38;15.10;99.90
17333;DHT22;8784;50.94667800;7.08448400;2023-05-07T01:33:09;15.10;99.90
17333;DHT22;8784;50.94667800;7.08448400;2023-05-07T01:35:40;15.10;99.90
17333;DHT22;8784;50.94667800;7.08448400;2023-05-07T01:38:08;15.10;99.90
17333;DHT22;8784;50.94667800;7.08448400;2023-05-07T01:40:37;15.10;99.90
17333;DHT22;8784;50.94667800;7.08448400;2023-05-07T01:43:03;15.10;99.90
17333;DHT22;8784;50.94667800;7.08448400;2023-05-07T01:45:31;15.20;99.90
17333;DHT22;8784;50.94667800;7.08448400;2023-05-07T01:47:59;15.30;99.90
17333;DHT22;8784;50.94667800;7.08448400;2023-05-07T01:50:26;15.30;99.90
17333;DHT22;8784;50.94667800;7.08448400;2023-05-07T01:52:53;15.40;99.90
17333;DHT22;8784;50.94667800;7.08448400;2023-05-07T01:55:20;15.50;99.90
17333;DHT22;8784;50.94667800;7.08448400;2023-05-07T01:57:49;15.60;99.90
17333;DHT22;8784;50.94667800;7.08448400;2023-05-07T02:00:16;15.60;99.90
17333;DHT22;8784;50.94667800;7.08448400;2023-05-07T02:02:44;15.70;99.90
17333;DHT22;8784;50.94667800;7.08448400;2023-05-07T02:05:11;15.70;99.90
17333;DHT22;8784;50.94667800;7.08448400;2023-05-07T02:07:38;15.70;99.90
17333;DHT22;8784;50.94667800;7.08448400;2023-05-07T02:10:06;15.70;99.90
17333;DHT22;8784;50.94667800;7.08448400;2023-05-07T02:12:33;15.70;99.90
17333;DHT22;8784;50.94667800;7.08448400;2023-05-07T02:15:01;15.70;99.90
17333;DHT22;8784;50.94667800;7.08448400;2023-05-07T02:17:28;15.70;99.90
17333;DHT22;8784;50.94667800;7.08448400;2023-05-07T02:19:57;15.60;99.90
17333;DHT22;8784;50.94667800;7.08448400;2023-05-07T02:22:24;15.50;99.90
17333;DHT22;8784;50.94667800;7.08448400;2023-05-07T02:24:50;15.40;99.90
17333;DHT22;8784;50.94667800;7.08448400;2023-05-07T02:27:17;15.40;99.90
17333;DHT22;8784;50.94667800;7.08448400;2023-05-07T02:29:44;15.40;99.90
17333;DHT22;8784;50.94667800;7.08448400;2023-05-07T02:32:12;15.40;99.90
17333;DHT22;8784;50.94667800;7.08448400;2023-05-07T02:34:39;15.40;99.90
17333;DHT22;8784;50.94667800;7.08448400;2023-05-07T02:37:06;15.40;99.90
17333;DHT22;8784;50.94667800;7.08448400;2023-05-07T02:39:32;15.40;99.90
17333;DHT22;8784;50.94667800;7.08448400;2023-05-07T02:41:59;15.30;99.90
17333;DHT22;8784;50.94667800;7.08448400;2023-05-07T02:44:27;15.30;99.90
17333;DHT22;8784;50.94667800;7.08448400;2023-05-07T02:46:56;15.30;99.90
17333;DHT22;8784;50.94667800;7.08448400;2023-05-07T02:49:25;15.20;99.90
17333;DHT22;8784;50.94667800;7.08448400;2023-05-07T02:51:51;15.20;99.90
17333;DHT22;8784;50.94667800;7.08448400;2023-05-07T02:54:18;15.20;99.90
17333;DHT22;8784;50.94667800;7.08448400;2023-05-07T02:56:45;15.20;99.90
17333;DHT22;8784;50.94667800;7.08448400;2023-05-07T02:59:12;15.10;99.90
17333;DHT22;8784;50.94667800;7.08448400;2023-05-07T03:01:39;15.20;99.90
17333;DHT22;8784;50.94667800;7.08448400;2023-05-07T03:04:07;15.20;99.90
17333;DHT22;8784;50.94667800;7.08448400;2023-05-07T03:06:35;15.10;99.90
17333;DHT22;8784;50.94667800;7.08448400;2023-05-07T03:09:02;15.10;99.90
17333;DHT22;8784;50.94667800;7.08448400;2023-05-07T03:11:29;15.10;99.90
17333;DHT22;8784;50.94667800;7.08448400;2023-05-07T03:13:56;15.00;99.90
17333;DHT22;8784;50.94667800;7.08448400;2023-05-07T03:16:22;14.90;99.90
17333;DHT22;8784;50.94667800;7.08448400;2023-05-07T03:18:50;14.90;99.90
17333;DHT22;8784;50.94667800;7.08448400;2023-05-07T03:21:16;14.90;99.90
17333;DHT22;8784;50.94667800;7.08448400;2023-05-07T03:23:45;14.90;99.90
17333;DHT22;8784;50.94667800;7.08448400;2023-05-07T03:26:11;15.00;99.90
17333;DHT22;8784;50.94667800;7.08448400;2023-05-07T03:28:38;15.00;99.90
17333;DHT22;8784;50.94667800;7.08448400;2023-05-07T03:31:05;15.00;99.90
17333;DHT22;8784;50.94667800;7.08448400;2023-05-07T03:33:33;15.10;99.90
17333;DHT22;8784;50.94667800;7.08448400;2023-05-07T03:36:00;15.10;99.90
17333;DHT22;8784;50.94667800;7.08448400;2023-05-07T03:38:27;15.00;99.90
17333;DHT22;8784;50.94667800;7.08448400;2023-05-07T03:40:55;14.90;99.90
17333;DHT22;8784;50.94667800;7.08448400;2023-05-07T03:43:22;14.90;99.90
17333;DHT22;8784;50.94667800;7.08448400;2023-05-07T03:45:49;14.90;99.90
17333;DHT22;8784;50.94667800;7.08448400;2023-05-07T03:48:15;14.80;99.90
17333;DHT22;8784;50.94667800;7.08448400;2023-05-07T03:50:42;14.90;99.90
17333;DHT22;8784;50.94667800;7.08448400;2023-05-07T03:53:09;14.90;99.90
17333;DHT22;8784;50.94667800;7.08448400;2023-05-07T03:55:36;14.90;99.90
17333;DHT22;8784;50.94667800;7.08448400;2023-05-07T03:58:04;14.80;99.90
17333;DHT22;8784;50.94667800;7.08448400;2023-05-07T04:00:31;14.70;99.90
17333;DHT22;8784;50.94667800;7.08448400;2023-05-07T04:02:59;14.70;99.90
17333;DHT22;8784;50.94667800;7.08448400;2023-05-07T04:05:26;14.60;99.90
17333;DHT22;8784;50.94667800;7.08448400;2023-05-07T04:07:53;14.60;99.90
17333;DHT22;8784;50.94667800;7.08448400;2023-05-07T04:10:20;14.70;99.90
17333;DHT22;8784;50.94667800;7.08448400;2023-05-07T04:12:47;14.70;99.90
17333;DHT22;8784;50.94667800;7.08448400;2023-05-07T04:15:15;14.70;99.90
17333;DHT22;8784;50.94667800;7.08448400;2023-05-07T04:17:42;14.70;99.90
17333;DHT22;8784;50.94667800;7.08448400;2023-05-07T04:20:12;14.70;99.90
17333;DHT22;8784;50.94667800;7.08448400;2023-05-07T04:22:39;14.70;99.90
17333;DHT22;8784;50.94667800;7.08448400;2023-05-07T04:25:07;14.70;99.90
17333;DHT22;8784;50.94667800;7.08448400;2023-05-07T04:27:34;14.70;99.90
17333;DHT22;8784;50.94667800;7.08448400;2023-05-07T04:30:01;14.70;99.90
17333;DHT22;8784;50.94667800;7.08448400;2023-05-07T04:32:30;14.90;99.90
17333;DHT22;8784;50.94667800;7.08448400;2023-05-07T04:34:57;14.90;99.90
17333;DHT22;8784;50.94667800;7.08448400;2023-05-07T04:37:25;15.00;99.90
17333;DHT22;8784;50.94667800;7.08448400;2023-05-07T04:39:52;15.00;99.90
17333;DHT22;8784;50.94667800;7.08448400;2023-05-07T04:42:19;15.10;99.90
17333;DHT22;8784;50.94667800;7.08448400;2023-05-07T04:44:46;15.10;99.90
17333;DHT22;8784;50.94667800;7.08448400;2023-05-07T04:47:13;15.10;99.90
17333;DHT22;8784;50.94667800;7.08448400;2023-05-07T04:49:41;15.00;99.90
17333;DHT22;8784;50.94667800;7.08448400;2023-05-07T04:52:08;15.10;99.90
17333;DHT22;8784;50.94667800;7.08448400;2023-05-07T04:54:35;15.20;99.90
17333;DHT22;8784;50.94667800;7.08448400;2023-05-07T04:57:03;15.20;99.90
17333;DHT22;8784;50.94667800;7.08448400;2023-05-07T04:59:31;15.30;99.90
17333;DHT22;8784;50.94667800;7.08448400;2023-05-07T05:01:58;15.40;99.90
17333;DHT22;8784;50.94667800;7.08448400;2023-05-07T05:04:25;15.40;99.90
17333;DHT22;8784;50.94667800;7.08448400;2023-05-07T05:06:53;15.50;99.90
17333;DHT22;8784;50.94667800;7.08448400;2023-05-07T05:09:20;15.60;99.90
17333;DHT22;8784;50.94667800;7.08448400;2023-05-07T05:11:47;15.70;99.90
17333;DHT22;8784;50.94667800;7.08448400;2023-05-07T05:14:14;15.70;99.90
17333;DHT22;8784;50.94667800;7.08448400;2023-05-07T05:16:41;15.80;99.90
17333;DHT22;8784;50.94667800;7.08448400;2023-05-07T05:19:08;15.90;99.90
17333;DHT22;8784;50.94667800;7.08448400;2023-05-07T05:21:35;16.00;99.90
17333;DHT22;8784;50.94667800;7.08448400;2023-05-07T05:24:03;16.10;99.90
17333;DHT22;8784;50.94667800;7.08448400;2023-05-07T05:26:30;16.10;99.90
17333;DHT22;8784;50.94667800;7.08448400;2023-05-07T05:28:57;16.10;99.90
17333;DHT22;8784;50.94667800;7.08448400;2023-05-07T05:31:24;16.20;99.90
17333;DHT22;8784;50.94667800;7.08448400;2023-05-07T05:33:51;16.40;99.90
17333;DHT22;8784;50.94667800;7.08448400;2023-05-07T05:36:17;16.40;99.90
17333;DHT22;8784;50.94667800;7.08448400;2023-05-07T05:38:44;16.60;99.90
17333;DHT22;8784;50.94667800;7.08448400;2023-05-07T05:41:13;16.60;99.90
17333;DHT22;8784;50.94667800;7.08448400;2023-05-07T05:43:39;16.70;99.90
17333;DHT22;8784;50.94667800;7.08448400;2023-05-07T05:46:06;16.70;99.90
17333;DHT22;8784;50.94667800;7.08448400;2023-05-07T05:48:34;16.70;99.90
17333;DHT22;8784;50.94667800;7.08448400;2023-05-07T05:51:01;16.80;99.90
17333;DHT22;8784;50.94667800;7.08448400;2023-05-07T05:53:28;16.90;99.90
17333;DHT22;8784;50.94667800;7.08448400;2023-05-07T05:55:55;17.10;99.90
17333;DHT22;8784;50.94667800;7.08448400;2023-05-07T05:58:23;17.20;99.90
17333;DHT22;8784;50.94667800;7.08448400;2023-05-07T06:00:50;17.10;99.90
17333;DHT22;8784;50.94667800;7.08448400;2023-05-07T06:03:18;17.10;99.90
17333;DHT22;8784;50.94667800;7.08448400;2023-05-07T06:05:45;17.00;99.90
17333;DHT22;8784;50.94667800;7.08448400;2023-05-07T06:08:12;17.00;99.90
17333;DHT22;8784;50.94667800;7.08448400;2023-05-07T06:10:39;17.20;99.90
17333;DHT22;8784;50.94667800;7.08448400;2023-05-07T06:13:06;17.20;99.90
17333;DHT22;8784;50.94667800;7.08448400;2023-05-07T06:15:35;17.30;99.90
17333;DHT22;8784;50.94667800;7.08448400;2023-05-07T06:18:02;17.40;99.90
17333;DHT22;8784;50.94667800;7.08448400;2023-05-07T06:20:29;17.40;99.90
17333;DHT22;8784;50.94667800;7.08448400;2023-05-07T06:22:55;17.40;99.90
17333;DHT22;8784;50.94667800;7.08448400;2023-05-07T06:25:22;17.40;99.90
17333;DHT22;8784;50.94667800;7.08448400;2023-05-07T06:27:49;17.50;99.90
17333;DHT22;8784;50.94667800;7.08448400;2023-05-07T06:30:16;17.70;99.90
17333;DHT22;8784;50.94667800;7.08448400;2023-05-07T06:32:44;17.80;99.90
17333;DHT22;8784;50.94667800;7.08448400;2023-05-07T06:35:11;18.00;99.90
17333;DHT22;8784;50.94667800;7.08448400;2023-05-07T06:37:38;18.10;99.90
17333;DHT22;8784;50.94667800;7.08448400;2023-05-07T06:40:09;18.20;99.90
17333;DHT22;8784;50.94667800;7.08448400;2023-05-07T06:42:36;18.40;99.90
17333;DHT22;8784;50.94667800;7.08448400;2023-05-07T06:45:03;18.50;99.90
17333;DHT22;8784;50.94667800;7.08448400;2023-05-07T06:47:30;18.60;99.90
17333;DHT22;8784;50.94667800;7.08448400;2023-05-07T06:49:59;18.70;99.90
17333;DHT22;8784;50.94667800;7.08448400;2023-05-07T06:52:25;18.80;99.90
17333;DHT22;8784;50.94667800;7.08448400;2023-05-07T06:54:52;19.10;99.90
17333;DHT22;8784;50.94667800;7.08448400;2023-05-07T06:57:19;19.60;99.90
17333;DHT22;8784;50.94667800;7.08448400;2023-05-07T06:59:46;20.00;99.90
17333;DHT22;8784;50.94667800;7.08448400;2023-05-07T07:02:13;20.40;99.90
17333;DHT22;8784;50.94667800;7.08448400;2023-05-07T07:04:40;20.70;99.90
17333;DHT22;8784;50.94667800;7.08448400;2023-05-07T07:07:08;21.10;99.90
17333;DHT22;8784;50.94667800;7.08448400;2023-05-07T07:09:35;21.50;99.90
17333;DHT22;8784;50.94667800;7.08448400;2023-05-07T07:12:02;21.70;99.90
17333;DHT22;8784;50.94667800;7.08448400;2023-05-07T07:14:29;22.30;99.90
17333;DHT22;8784;50.94667800;7.08448400;2023-05-07T07:16:56;22.80;99.90
17333;DHT22;8784;50.94667800;7.08448400;2023-05-07T07:19:23;23.20;99.90
17333;DHT22;8784;50.94667800;7.08448400;2023-05-07T07:21:50;24.40;99.90
17333;DHT22;8784;50.94667800;7.08448400;2023-05-07T07:24:18;25.90;99.00
17333;DHT22;8784;50.94667800;7.08448400;2023-05-07T07:26:46;26.70;96.50
17333;DHT22;8784;50.94667800;7.08448400;2023-05-07T07:29:13;27.50;94.60
17333;DHT22;8784;50.94667800;7.08448400;2023-05-07T07:31:40;27.40;92.80
17333;DHT22;8784;50.94667800;7.08448400;2023-05-07T07:34:07;27.10;91.90
17333;DHT22;8784;50.94667800;7.08448400;2023-05-07T07:36:34;26.80;90.60
17333;DHT22;8784;50.94667800;7.08448400;2023-05-07T07:39:01;26.50;90.60
17333;DHT22;8784;50.94667800;7.08448400;2023-05-07T07:41:29;26.60;90.70
17333;DHT22;8784;50.94667800;7.08448400;2023-05-07T07:43:56;27.20;90.50
17333;DHT22;8784;50.94667800;7.08448400;2023-05-07T07:46:22;28.20;88.90
17333;DHT22;8784;50.94667800;7.08448400;2023-05-07T07:48:49;29.10;85.10
17333;DHT22;8784;50.94667800;7.08448400;2023-05-07T07:51:16;30.00;81.30
17333;DHT22;8784;50.94667800;7.08448400;2023-05-07T07:53:43;30.70;79.20
17333;DHT22;8784;50.94667800;7.08448400;2023-05-07T07:56:10;31.80;76.20
17333;DHT22;8784;50.94667800;7.08448400;2023-05-07T07:58:38;32.60;73.20
17333;DHT22;8784;50.94667800;7.08448400;2023-05-07T08:01:06;33.40;69.80
17333;DHT22;8784;50.94667800;7.08448400;2023-05-07T08:03:33;34.10;67.30
17333;DHT22;8784;50.94667800;7.08448400;2023-05-07T08:06:00;34.90;65.20
17333;DHT22;8784;50.94667800;7.08448400;2023-05-07T08:08:27;36.10;62.20
17333;DHT22;8784;50.94667800;7.08448400;2023-05-07T08:10:54;36.10;58.40
17333;DHT22;8784;50.94667800;7.08448400;2023-05-07T08:13:22;34.20;59.80
17333;DHT22;8784;50.94667800;7.08448400;2023-05-07T08:15:50;32.90;60.10
17333;DHT22;8784;50.94667800;7.08448400;2023-05-07T08:18:17;31.40;61.00
17333;DHT22;8784;50.94667800;7.08448400;2023-05-07T08:20:44;30.10;62.90
17333;DHT22;8784;50.94667800;7.08448400;2023-05-07T08:23:11;29.60;64.00
17333;DHT22;8784;50.94667800;7.08448400;2023-05-07T08:25:37;30.60;64.60
17333;DHT22;8784;50.94667800;7.08448400;2023-05-07T08:28:04;32.10;63.70
17333;DHT22;8784;50.94667800;7.08448400;2023-05-07T08:30:31;32.80;61.20
17333;DHT22;8784;50.94667800;7.08448400;2023-05-07T08:33:00;32.70;60.50
17333;DHT22;8784;50.94667800;7.08448400;2023-05-07T08:35:27;31.70;60.00
17333;DHT22;8784;50.94667800;7.08448400;2023-05-07T08:37:54;30.70;60.80
17333;DHT22;8784;50.94667800;7.08448400;2023-05-07T08:40:23;29.90;61.90
17333;DHT22;8784;50.94667800;7.08448400;2023-05-07T08:42:52;29.20;62.30
17333;DHT22;8784;50.94667800;7.08448400;2023-05-07T08:45:20;28.30;62.90
17333;DHT22;8784;50.94667800;7.08448400;2023-05-07T08:47:51;27.50;64.20
17333;DHT22;8784;50.94667800;7.08448400;2023-05-07T08:50:20;27.00;65.10
17333;DHT22;8784;50.94667800;7.08448400;2023-05-07T08:52:48;27.00;66.10
17333;DHT22;8784;50.94667800;7.08448400;2023-05-07T08:55:15;27.20;65.30
17333;DHT22;8784;50.94667800;7.08448400;2023-05-07T08:57:42;27.10;65.00
17333;DHT22;8784;50.94667800;7.08448400;2023-05-07T09:00:10;27.10;65.00
17333;DHT22;8784;50.94667800;7.08448400;2023-05-07T09:02:37;28.40;64.60
17333;DHT22;8784;50.94667800;7.08448400;2023-05-07T09:05:05;28.70;63.20
17333;DHT22;8784;50.94667800;7.08448400;2023-05-07T09:07:34;28.50;63.20
17333;DHT22;8784;50.94667800;7.08448400;2023-05-07T09:10:02;28.00;62.70
17333;DHT22;8784;50.94667800;7.08448400;2023-05-07T09:12:30;27.80;63.50
17333;DHT22;8784;50.94667800;7.08448400;2023-05-07T09:14:57;28.10;63.80
17333;DHT22;8784;50.94667800;7.08448400;2023-05-07T09:17:24;28.70;63.30
17333;DHT22;8784;50.94667800;7.08448400;2023-05-07T09:19:51;29.00;63.30
17333;DHT22;8784;50.94667800;7.08448400;2023-05-07T09:22:19;29.10;62.90
17333;DHT22;8784;50.94667800;7.08448400;2023-05-07T09:24:49;29.80;62.10
17333;DHT22;8784;50.94667800;7.08448400;2023-05-07T09:27:17;30.60;61.00
17333;DHT22;8784;50.94667800;7.08448400;2023-05-07T09:29:44;31.10;60.10
17333;DHT22;8784;50.94667800;7.08448400;2023-05-07T09:32:11;31.30;60.00
17333;DHT22;8784;50.94667800;7.08448400;2023-05-07T09:34:39;31.50;59.50
17333;DHT22;8784;50.94667800;7.08448400;2023-05-07T09:37:06;32.30;58.80
17333;DHT22;8784;50.94667800;7.08448400;2023-05-07T09:39:39;33.10;57.70
17333;DHT22;8784;50.94667800;7.08448400;2023-05-07T09:42:08;33.50;56.50
17333;DHT22;8784;50.94667800;7.08448400;2023-05-07T09:44:36;34.10;55.80
17333;DHT22;8784;50.94667800;7.08448400;2023-05-07T09:47:05;34.20;55.30
17333;DHT22;8784;50.94667800;7.08448400;2023-05-07T09:49:35;33.50;54.90
17333;DHT22;8784;50.94667800;7.08448400;2023-05-07T09:52:03;33.00;55.30
17333;DHT22;8784;50.94667800;7.08448400;2023-05-07T09:54:32;32.80;55.60
17333;DHT22;8784;50.94667800;7.08448400;2023-05-07T09:57:01;32.70;55.60
17333;DHT22;8784;50.94667800;7.08448400;2023-05-07T09:59:31;32.70;55.80
17333;DHT22;8784;50.94667800;7.08448400;2023-05-07T10:01:59;33.30;54.50
17333;DHT22;8784;50.94667800;7.08448400;2023-05-07T10:04:27;34.30;54.30
17333;DHT22;8784;50.94667800;7.08448400;2023-05-07T10:06:54;35.40;53.20
17333;DHT22;8784;50.94667800;7.08448400;2023-05-07T10:09:23;35.40;52.90
17333;DHT22;8784;50.94667800;7.08448400;2023-05-07T10:11:51;35.50;52.50
17333;DHT22;8784;50.94667800;7.08448400;2023-05-07T10:14:19;35.80;52.20
17333;DHT22;8784;50.94667800;7.08448400;2023-05-07T10:16:48;36.00;51.70
17333;DHT22;8784;50.94667800;7.08448400;2023-05-07T10:19:16;35.70;51.60
17333;DHT22;8784;50.94667800;7.08448400;2023-05-07T10:21:50;35.00;51.00
17333;DHT22;8784;50.94667800;7.08448400;2023-05-07T10:24:21;34.50;51.40
17333;DHT22;8784;50.94667800;7.08448400;2023-05-07T10:26:51;34.30;51.70
17333;DHT22;8784;50.94667800;7.08448400;2023-05-07T10:29:24;34.10;52.00
17333;DHT22;8784;50.94667800;7.08448400;2023-05-07T10:31:59;33.50;51.40
17333;DHT22;8784;50.94667800;7.08448400;2023-05-07T10:34:36;32.00;52.10
17333;DHT22;8784;50.94667800;7.08448400;2023-05-07T10:37:04;31.80;53.00
17333;DHT22;8784;50.94667800;7.08448400;2023-05-07T10:39:31;31.90;53.30
17333;DHT22;8784;50.94667800;7.08448400;2023-05-07T10:42:07;31.40;53.50
17333;DHT22;8784;50.94667800;7.08448400;2023-05-07T10:44:35;30.90;54.00
17333;DHT22;8784;50.94667800;7.08448400;2023-05-07T10:47:08;31.00;54.20
17333;DHT22;8784;50.94667800;7.08448400;2023-05-07T10:49:36;30.40;53.40
17333;DHT22;8784;50.94667800;7.08448400;2023-05-07T10:52:14;30.20;53.90
17333;DHT22;8784;50.94667800;7.08448400;2023-05-07T10:54:41;30.50;53.60
17333;DHT22;8784;50.94667800;7.08448400;2023-05-07T10:57:33;31.20;53.90
17333;DHT22;8784;50.94667800;7.08448400;2023-05-07T11:00:02;31.30;53.10
17333;DHT22;8784;50.94667800;7.08448400;2023-05-07T11:03:05;31.00;53.70
17333;DHT22;8784;50.94667800;7.08448400;2023-05-07T11:05:32;30.70;53.20
17333;DHT22;8784;50.94667800;7.08448400;2023-05-07T11:08:00;30.60;53.80
17333;DHT22;8784;50.94667800;7.08448400;2023-05-07T11:10:52;30.50;54.10
17333;DHT22;8784;50.94667800;7.08448400;2023-05-07T11:13:42;30.30;53.60
17333;DHT22;8784;50.94667800;7.08448400;2023-05-07T11:16:20;30.20;54.10
17333;DHT22;8784;50.94667800;7.08448400;2023-05-07T11:18:50;30.10;54.20
17333;DHT22;8784;50.94667800;7.08448400;2023-05-07T11:21:34;29.60;53.30
17333;DHT22;8784;50.94667800;7.08448400;2023-05-07T11:24:01;29.10;53.70
17333;DHT22;8784;50.94667800;7.08448400;2023-05-07T11:26:30;28.80;54.30
17333;DHT22;8784;50.94667800;7.08448400;2023-05-07T11:28:57;28.90;54.70
17333;DHT22;8784;50.94667800;7.08448400;2023-05-07T11:31:27;28.80;54.10
17333;DHT22;8784;50.94667800;7.08448400;2023-05-07T11:33:57;28.30;53.90
17333;DHT22;8784;50.94667800;7.08448400;2023-05-07T11:36:24;28.00;55.00
17333;DHT22;8784;50.94667800;7.08448400;2023-05-07T11:38:52;28.20;55.40
17333;DHT22;8784;50.94667800;7.08448400;2023-05-07T11:41:19;28.40;55.20
17333;DHT22;8784;50.94667800;7.08448400;2023-05-07T11:43:57;28.60;55.40
17333;DHT22;8784;50.94667800;7.08448400;2023-05-07T11:46:26;28.80;55.10
17333;DHT22;8784;50.94667800;7.08448400;2023-05-07T11:48:53;29.00;55.20
17333;DHT22;8784;50.94667800;7.08448400;2023-05-07T11:51:23;29.20;54.70
17333;DHT22;8784;50.94667800;7.08448400;2023-05-07T11:53:52;28.90;54.30
17333;DHT22;8784;50.94667800;7.08448400;2023-05-07T11:56:19;28.80;55.20
17333;DHT22;8784;50.94667800;7.08448400;2023-05-07T11:58:47;28.70;54.50
17333;DHT22;8784;50.94667800;7.08448400;2023-05-07T12:01:15;28.50;54.50
17333;DHT22;8784;50.94667800;7.08448400;2023-05-07T12:03:44;28.00;54.00
17333;DHT22;8784;50.94667800;7.08448400;2023-05-07T12:06:13;27.70;54.00
17333;DHT22;8784;50.94667800;7.08448400;2023-05-07T12:08:43;27.30;55.20
17333;DHT22;8784;50.94667800;7.08448400;2023-05-07T12:11:13;27.20;54.90
17333;DHT22;8784;50.94667800;7.08448400;2023-05-07T12:13:41;27.00;54.80
17333;DHT22;8784;50.94667800;7.08448400;2023-05-07T12:16:09;26.70;55.50
17333;DHT22;8784;50.94667800;7.08448400;2023-05-07T12:18:37;26.50;55.00
17333;DHT22;8784;50.94667800;7.08448400;2023-05-07T12:21:05;26.30;55.10
17333;DHT22;8784;50.94667800;7.08448400;2023-05-07T12:23:34;26.20;55.20
17333;DHT22;8784;50.94667800;7.08448400;2023-05-07T12:26:03;26.10;55.50
17333;DHT22;8784;50.94667800;7.08448400;2023-05-07T12:28:31;26.00;55.70
17333;DHT22;8784;50.94667800;7.08448400;2023-05-07T12:31:02;25.90;55.60
17333;DHT22;8784;50.94667800;7.08448400;2023-05-07T12:33:29;25.80;55.90
17333;DHT22;8784;50.94667800;7.08448400;2023-05-07T12:35:57;25.80;55.80
17333;DHT22;8784;50.94667800;7.08448400;2023-05-07T12:38:24;25.80;56.00
17333;DHT22;8784;50.94667800;7.08448400;2023-05-07T12:40:54;25.80;56.40
17333;DHT22;8784;50.94667800;7.08448400;2023-05-07T12:43:25;25.70;56.40
17333;DHT22;8784;50.94667800;7.08448400;2023-05-07T12:45:55;25.70;56.30
17333;DHT22;8784;50.94667800;7.08448400;2023-05-07T12:48:23;25.70;56.30
17333;DHT22;8784;50.94667800;7.08448400;2023-05-07T12:50:53;25.50;56.20
17333;DHT22;8784;50.94667800;7.08448400;2023-05-07T12:53:22;25.20;56.40
17333;DHT22;8784;50.94667800;7.08448400;2023-05-07T12:55:51;25.00;56.90
17333;DHT22;8784;50.94667800;7.08448400;2023-05-07T12:58:19;24.90;57.30
17333;DHT22;8784;50.94667800;7.08448400;2023-05-07T13:00:49;24.80;57.60
17333;DHT22;8784;50.94667800;7.08448400;2023-05-07T13:03:21;24.80;57.90
17333;DHT22;8784;50.94667800;7.08448400;2023-05-07T13:05:49;24.80;57.90
17333;DHT22;8784;50.94667800;7.08448400;2023-05-07T13:08:27;24.70;58.10
17333;DHT22;8784;50.94667800;7.08448400;2023-05-07T13:10:54;24.70;58.30
17333;DHT22;8784;50.94667800;7.08448400;2023-05-07T13:13:21;24.70;58.50
17333;DHT22;8784;50.94667800;7.08448400;2023-05-07T13:15:50;24.70;58.70
17333;DHT22;8784;50.94667800;7.08448400;2023-05-07T13:18:17;24.80;59.10
17333;DHT22;8784;50.94667800;7.08448400;2023-05-07T13:20:47;24.90;59.40
17333;DHT22;8784;50.94667800;7.08448400;2023-05-07T13:23:14;25.10;60.00
17333;DHT22;8784;50.94667800;7.08448400;2023-05-07T13:25:41;25.20;60.80
17333;DHT22;8784;50.94667800;7.08448400;2023-05-07T13:28:08;25.30;60.90
17333;DHT22;8784;50.94667800;7.08448400;2023-05-07T13:30:35;25.40;61.10
17333;DHT22;8784;50.94667800;7.08448400;2023-05-07T13:33:03;25.40;61.70
17333;DHT22;8784;50.94667800;7.08448400;2023-05-07T13:35:30;25.40;61.60
17333;DHT22;8784;50.94667800;7.08448400;2023-05-07T13:37:57;25.40;62.10
17333;DHT22;8784;50.94667800;7.08448400;2023-05-07T13:40:24;25.30;61.80